createdAt,value
2023-10-03T00:00:15.903Z,29.524000
2023-10-03T00:05:24.237Z,29.524000
2023-10-03T00:10:24.147Z,29.524000
2023-10-03T00:15:17.888Z,29.516000
2023-10-03T00:20:18.042Z,29.516000
2023-10-03T00:25:18.028Z,29.516000
2023-10-03T00:30:17.993Z,29.513000
2023-10-03T00:35:24.229Z,29.513000
2023-10-03T00:40:24.285Z,29.513000
2023-10-03T00:45:18.060Z,29.516000
2023-10-03T00:50:16.081Z,29.516000
2023-10-03T00:55:24.287Z,29.516000
2023-10-03T01:00:18.164Z,29.508000
2023-10-03T01:05:18.055Z,29.508000
2023-10-03T01:10:18.076Z,29.508000
2023-10-03T01:15:20.728Z,29.508000
2023-10-03T01:20:18.184Z,29.508000
2023-10-03T01:25:18.146Z,29.508000
2023-10-03T01:30:18.118Z,29.504000
2023-10-03T01:35:18.261Z,29.504000
2023-10-03T01:40:16.123Z,29.504000
2023-10-03T01:45:16.176Z,29.504000
2023-10-03T01:50:18.163Z,29.504000
2023-10-03T01:55:24.344Z,29.504000
2023-10-03T02:00:18.188Z,29.498000
2023-10-03T02:05:24.417Z,29.498000
2023-10-03T02:10:18.124Z,29.498000
2023-10-03T02:15:18.102Z,29.488000
2023-10-03T02:20:24.312Z,29.488000
2023-10-03T02:25:24.350Z,29.488000
2023-10-03T02:30:24.365Z,29.490000
2023-10-03T02:35:16.513Z,29.490000
2023-10-03T02:40:16.206Z,29.490000
2023-10-03T02:45:18.244Z,29.487000
2023-10-03T02:50:24.364Z,29.487000
2023-10-03T02:55:24.302Z,29.487000
2023-10-03T03:00:18.245Z,29.487000
2023-10-03T03:05:18.280Z,29.487000
2023-10-03T03:10:18.328Z,29.487000
2023-10-03T03:15:18.223Z,29.489000
2023-10-03T03:20:24.379Z,29.489000
2023-10-03T03:25:16.327Z,29.489000
2023-10-03T03:30:16.280Z,29.487000
2023-10-03T03:35:24.548Z,29.487000
2023-10-03T03:40:18.302Z,29.487000
2023-10-03T03:45:24.518Z,29.487000
2023-10-03T03:50:18.329Z,29.487000
2023-10-03T03:55:24.478Z,29.487000
2023-10-03T04:00:17.552Z,29.486000
2023-10-03T04:05:17.542Z,29.486000
2023-10-03T04:10:17.562Z,29.486000
2023-10-03T04:15:17.587Z,29.490000
2023-10-03T04:20:17.742Z,29.490000
2023-10-03T04:25:23.838Z,29.490000
2023-10-03T04:30:23.993Z,29.489000
2023-10-03T04:35:15.736Z,29.489000
2023-10-03T04:40:15.620Z,29.489000
2023-10-03T04:45:23.872Z,29.479000
2023-10-03T04:50:24.039Z,29.479000
2023-10-03T04:55:23.924Z,29.479000
2023-10-03T05:00:23.878Z,29.482000
2023-10-03T05:05:23.947Z,29.482000
2023-10-03T05:10:23.887Z,29.482000
2023-10-03T05:15:24.029Z,29.487000
2023-10-03T05:20:24.009Z,29.487000
2023-10-03T05:25:17.718Z,29.487000
2023-10-03T05:30:15.829Z,29.494000
2023-10-03T05:35:17.717Z,29.494000
2023-10-03T05:40:17.756Z,29.494000
2023-10-03T05:45:23.993Z,29.491000
2023-10-03T05:50:17.740Z,29.491000
2023-10-03T05:55:18.063Z,29.491000
2023-10-03T06:00:23.972Z,29.487000
2023-10-03T06:05:24.073Z,29.487000
2023-10-03T06:10:18.452Z,29.487000
2023-10-03T06:15:24.039Z,29.480000
2023-10-03T06:20:16.527Z,29.480000
2023-10-03T06:25:15.766Z,29.480000
2023-10-03T06:30:24.071Z,29.478000
2023-10-03T06:35:24.013Z,29.478000
2023-10-03T06:40:24.097Z,29.478000
2023-10-03T06:45:24.089Z,29.475000
2023-10-03T06:50:24.846Z,29.475000
2023-10-03T06:55:17.761Z,29.475000
2023-10-03T07:00:24.027Z,29.474000
2023-10-03T07:05:24.048Z,29.474000
2023-10-03T07:10:24.014Z,29.474000
2023-10-03T07:15:15.862Z,29.474000
2023-10-03T07:20:15.905Z,29.474000
2023-10-03T07:25:24.081Z,29.474000
2023-10-03T07:30:24.182Z,29.465000
2023-10-03T07:35:24.148Z,29.465000
2023-10-03T07:40:17.807Z,29.465000
2023-10-03T07:45:17.861Z,29.464000
2023-10-03T07:50:18.000Z,29.464000
2023-10-03T07:55:17.922Z,29.464000
2023-10-03T08:00:24.167Z,29.456000
2023-10-03T08:05:17.920Z,29.456000
2023-10-03T08:10:15.853Z,29.456000
2023-10-03T08:15:16.093Z,29.448000
2023-10-03T08:20:26.480Z,29.448000
2023-10-03T08:25:17.981Z,29.448000
2023-10-03T08:30:24.302Z,29.449000
2023-10-03T08:35:24.149Z,29.449000
2023-10-03T08:40:24.304Z,29.449000
2023-10-03T08:45:24.197Z,29.448000
2023-10-03T08:50:24.139Z,29.448000
2023-10-03T08:55:17.995Z,29.448000
2023-10-03T09:00:16.043Z,29.447000
2023-10-03T09:05:16.064Z,29.447000
2023-10-03T09:10:18.084Z,29.447000
2023-10-03T09:15:18.099Z,29.442000
2023-10-03T09:20:24.239Z,29.442000
2023-10-03T09:25:18.080Z,29.442000
2023-10-03T09:30:24.471Z,29.437000
2023-10-03T09:35:18.117Z,29.437000
2023-10-03T09:40:24.378Z,29.437000
2023-10-03T09:45:24.333Z,29.442000
2023-10-03T09:50:24.370Z,29.442000
2023-10-03T09:55:16.154Z,29.442000
2023-10-03T10:00:16.099Z,29.445000
2023-10-03T10:05:18.069Z,29.445000
2023-10-03T10:10:18.136Z,29.445000
2023-10-03T10:15:17.979Z,29.441000
2023-10-03T10:20:18.167Z,29.441000
2023-10-03T10:25:18.233Z,29.441000
2023-10-03T10:30:24.250Z,29.437000
2023-10-03T10:35:18.171Z,29.437000
2023-10-03T10:40:24.416Z,29.437000
2023-10-03T10:45:24.254Z,29.436000
2023-10-03T10:50:24.935Z,29.436000
2023-10-03T10:55:24.487Z,29.436000
2023-10-03T11:00:24.365Z,29.430000
2023-10-03T11:05:24.303Z,29.430000
2023-10-03T11:10:34.679Z,29.430000
2023-10-03T11:15:18.201Z,29.434000
2023-10-03T11:20:18.155Z,29.434000
2023-10-03T11:25:24.386Z,29.434000
2023-10-03T11:30:24.399Z,29.434000
2023-10-03T11:35:24.330Z,29.434000
2023-10-03T11:40:16.377Z,29.434000
2023-10-03T11:45:16.355Z,29.442000
2023-10-03T11:50:18.332Z,29.442000
2023-10-03T11:55:18.327Z,29.442000
2023-10-03T12:00:18.345Z,29.440000
2023-10-03T12:05:18.368Z,29.440000
2023-10-03T12:10:18.338Z,29.440000
2023-10-03T12:15:18.268Z,29.432000
2023-10-03T12:20:24.504Z,29.432000
2023-10-03T12:25:24.422Z,29.432000
2023-10-03T12:30:18.447Z,29.432000
2023-10-03T12:35:16.459Z,29.432000
2023-10-03T12:40:16.334Z,29.432000
2023-10-03T12:45:24.576Z,29.424000
2023-10-03T12:50:18.455Z,29.424000
2023-10-03T12:55:18.397Z,29.424000
2023-10-03T13:00:18.458Z,29.418000
2023-10-03T13:05:18.309Z,29.418000
2023-10-03T13:10:24.700Z,29.418000
2023-10-03T13:15:18.446Z,29.411000
2023-10-03T13:20:18.359Z,29.411000
2023-10-03T13:25:24.696Z,29.411000
2023-10-03T13:30:16.498Z,29.398000
2023-10-03T13:35:24.690Z,29.398000
2023-10-03T13:40:18.622Z,29.398000
2023-10-03T13:45:19.009Z,29.382000
2023-10-03T13:50:18.952Z,29.382000
2023-10-03T13:55:24.684Z,29.382000
2023-10-03T14:00:18.518Z,29.365000
2023-10-03T14:05:18.529Z,29.365000
2023-10-03T14:10:18.878Z,29.365000
2023-10-03T14:15:18.432Z,29.348000
2023-10-03T14:20:16.707Z,29.348000
2023-10-03T14:25:16.520Z,29.348000
2023-10-03T14:30:24.731Z,29.330000
2023-10-03T14:35:18.567Z,29.330000
2023-10-03T14:40:24.647Z,29.330000
2023-10-03T14:45:18.565Z,29.314000
2023-10-03T14:50:24.847Z,29.314000
2023-10-03T14:55:24.705Z,29.314000
2023-10-03T15:00:18.604Z,29.303000
2023-10-03T15:05:24.795Z,29.303000
2023-10-03T15:10:18.626Z,29.303000
2023-10-03T15:15:16.625Z,29.235000
2023-10-03T15:20:24.769Z,29.235000
2023-10-03T15:25:24.663Z,29.235000
2023-10-03T15:30:24.768Z,29.227000
2023-10-03T15:35:18.704Z,29.227000
2023-10-03T15:40:18.703Z,29.227000
2023-10-03T15:45:24.925Z,29.219000
2023-10-03T15:50:18.695Z,29.219000
2023-10-03T15:55:24.912Z,29.219000
2023-10-03T16:00:18.702Z,29.220000
2023-10-03T16:05:16.716Z,29.220000
2023-10-03T16:10:16.684Z,29.220000
2023-10-03T16:15:24.808Z,29.212000
2023-10-03T16:20:18.679Z,29.212000
2023-10-03T16:25:24.821Z,29.212000
2023-10-03T16:30:18.812Z,29.202000
2023-10-03T16:35:18.662Z,29.202000
2023-10-03T16:40:24.834Z,29.202000
2023-10-03T16:45:25.012Z,29.195000
2023-10-03T16:50:18.745Z,29.195000
2023-10-03T16:55:24.960Z,29.195000
2023-10-03T17:00:16.846Z,29.188000
2023-10-03T17:05:16.945Z,29.188000
2023-10-03T17:10:18.851Z,29.188000
2023-10-03T17:15:25.255Z,29.176000
2023-10-03T17:20:25.183Z,29.176000
2023-10-03T17:25:18.768Z,29.176000
2023-10-03T17:30:18.872Z,29.168000
2023-10-03T17:35:18.893Z,29.168000
2023-10-03T17:40:18.824Z,29.168000
2023-10-03T17:45:18.872Z,29.163000
2023-10-03T17:50:18.817Z,29.163000
2023-10-03T17:55:16.844Z,29.163000
2023-10-03T18:00:18.856Z,29.152000
2023-10-03T18:05:19.246Z,29.152000
2023-10-03T18:10:18.827Z,29.152000
2023-10-03T18:15:25.037Z,29.146000
2023-10-03T18:20:18.974Z,29.146000
2023-10-03T18:25:25.142Z,29.146000
2023-10-03T18:30:25.155Z,29.146000
2023-10-03T18:35:25.095Z,29.146000
2023-10-03T18:40:18.837Z,29.146000
2023-10-03T18:45:16.924Z,29.147000
2023-10-03T18:50:16.946Z,29.147000
2023-10-03T18:55:18.919Z,29.147000
2023-10-03T19:00:25.343Z,29.140000
2023-10-03T19:05:18.875Z,29.140000
2023-10-03T19:10:25.077Z,29.140000
2023-10-03T19:15:25.163Z,29.136000
2023-10-03T19:20:25.166Z,29.136000
2023-10-03T19:25:18.914Z,29.136000
2023-10-03T19:30:20.288Z,29.134000
2023-10-03T19:35:18.922Z,29.134000
2023-10-03T19:40:16.958Z,29.134000
2023-10-03T19:45:25.207Z,29.142000
2023-10-03T19:50:25.204Z,29.142000
2023-10-03T19:55:25.213Z,29.142000
2023-10-03T20:00:18.949Z,29.130000
2023-10-03T20:05:19.001Z,29.130000
2023-10-03T20:10:25.201Z,29.130000
2023-10-03T20:15:18.947Z,29.126000
2023-10-03T20:20:18.951Z,29.126000
2023-10-03T20:25:25.250Z,29.126000
2023-10-03T20:30:17.114Z,29.130000
2023-10-03T20:35:17.126Z,29.130000
2023-10-03T20:40:19.074Z,29.130000
2023-10-03T20:45:25.301Z,29.122000
2023-10-03T20:50:19.012Z,29.122000
2023-10-03T20:55:19.133Z,29.122000
2023-10-03T21:00:25.349Z,29.121000
2023-10-03T21:05:19.084Z,29.121000
2023-10-03T21:10:19.082Z,29.121000
2023-10-03T21:15:25.379Z,29.125000
2023-10-03T21:20:25.290Z,29.125000
2023-10-03T21:25:17.151Z,29.125000
2023-10-03T21:30:17.166Z,29.132000
2023-10-03T21:35:25.324Z,29.132000
2023-10-03T21:40:25.275Z,29.132000
2023-10-03T21:45:19.095Z,29.132000
2023-10-03T21:50:25.353Z,29.132000
2023-10-03T21:55:19.069Z,29.132000
2023-10-03T22:00:19.188Z,29.137000
2023-10-03T22:05:19.135Z,29.137000
2023-10-03T22:10:25.418Z,29.137000
2023-10-03T22:15:25.256Z,29.146000
2023-10-03T22:20:17.190Z,29.146000
2023-10-03T22:25:19.190Z,29.146000
2023-10-03T22:30:19.609Z,29.149000
2023-10-03T22:35:25.405Z,29.149000
2023-10-03T22:40:19.180Z,29.149000
2023-10-03T22:45:19.188Z,29.161000
2023-10-03T22:50:19.055Z,29.161000
2023-10-03T22:55:19.178Z,29.161000
2023-10-03T23:00:19.257Z,29.171000
2023-10-03T23:05:25.456Z,29.171000
2023-10-03T23:10:17.267Z,29.171000
2023-10-03T23:15:17.133Z,29.181000
2023-10-03T23:20:25.543Z,29.181000
2023-10-03T23:25:19.218Z,29.181000
2023-10-03T23:30:25.468Z,29.179000
2023-10-03T23:35:19.195Z,29.179000
2023-10-03T23:40:19.260Z,29.179000
2023-10-03T23:45:19.254Z,29.189000
2023-10-03T23:50:19.227Z,29.189000
2023-10-03T23:55:25.482Z,29.189000
